sensor_id;sensor_type;location;lat;lon;timestamp;temperature;humidity
18175;DHT22;9212;50.894;16.714;2022-12-07T00:01:13;2.10;99.90
18175;DHT22;9212;50.894;16.714;2022-12-07T00:03:41;2.90;99.90
18175;DHT22;9212;50.894;16.714;2022-12-07T00:06:12;2.10;99.90
18175;DHT22;9212;50.894;16.714;2022-12-07T00:08:39;1.90;99.90
18175;DHT22;9212;50.894;16.714;2022-12-07T00:11:08;2.00;99.90
18175;DHT22;9212;50.894;16.714;2022-12-07T00:13:36;2.00;99.90
18175;DHT22;9212;50.894;16.714;2022-12-07T00:16:04;2.00;99.90
18175;DHT22;9212;50.894;16.714;2022-12-07T00:18:32;2.00;99.90
18175;DHT22;9212;50.894;16.714;2022-12-07T00:21:00;2.00;99.90
18175;DHT22;9212;50.894;16.714;2022-12-07T00:23:29;2.00;99.90
18175;DHT22;9212;50.894;16.714;2022-12-07T00:26:02;2.00;99.90
18175;DHT22;9212;50.894;16.714;2022-12-07T00:28:29;2.00;99.90
18175;DHT22;9212;50.894;16.714;2022-12-07T00:31:00;2.00;99.90
18175;DHT22;9212;50.894;16.714;2022-12-07T00:33:27;2.00;99.90
18175;DHT22;9212;50.894;16.714;2022-12-07T00:35:55;2.00;99.90
18175;DHT22;9212;50.894;16.714;2022-12-07T00:38:22;1.20;99.90
18175;DHT22;9212;50.894;16.714;2022-12-07T00:40:56;2.90;99.90
18175;DHT22;9212;50.894;16.714;2022-12-07T00:45:50;1.80;99.90
18175;DHT22;9212;50.894;16.714;2022-12-07T00:48:17;2.10;99.90
18175;DHT22;9212;50.894;16.714;2022-12-07T00:50:44;3.00;99.90
18175;DHT22;9212;50.894;16.714;2022-12-07T00:53:11;2.00;99.90
18175;DHT22;9212;50.894;16.714;2022-12-07T01:00:36;2.00;99.90
18175;DHT22;9212;50.894;16.714;2022-12-07T01:03:03;2.00;99.90
18175;DHT22;9212;50.894;16.714;2022-12-07T01:10:25;2.00;99.90
18175;DHT22;9212;50.894;16.714;2022-12-07T01:12:52;2.80;99.90
18175;DHT22;9212;50.894;16.714;2022-12-07T01:15:21;2.10;99.90
18175;DHT22;9212;50.894;16.714;2022-12-07T01:20:15;2.90;99.90
18175;DHT22;9212;50.894;16.714;2022-12-07T01:22:43;1.90;99.90
18175;DHT22;9212;50.894;16.714;2022-12-07T01:25:11;1.80;99.90
18175;DHT22;9212;50.894;16.714;2022-12-07T01:27:38;1.90;99.90
18175;DHT22;9212;50.894;16.714;2022-12-07T01:30:06;1.90;99.90
18175;DHT22;9212;50.894;16.714;2022-12-07T01:32:35;1.80;99.90
18175;DHT22;9212;50.894;16.714;2022-12-07T01:37:34;2.50;99.90
18175;DHT22;9212;50.894;16.714;2022-12-07T01:40:01;2.30;99.90
18175;DHT22;9212;50.894;16.714;2022-12-07T01:42:29;1.80;99.90
18175;DHT22;9212;50.894;16.714;2022-12-07T01:48:14;1.80;99.90
18175;DHT22;9212;50.894;16.714;2022-12-07T01:50:43;1.80;99.90
18175;DHT22;9212;50.894;16.714;2022-12-07T01:53:12;1.70;99.90
18175;DHT22;9212;50.894;16.714;2022-12-07T01:55:42;1.60;99.90
18175;DHT22;9212;50.894;16.714;2022-12-07T01:58:11;2.00;99.90
18175;DHT22;9212;50.894;16.714;2022-12-07T02:00:39;2.10;99.90
18175;DHT22;9212;50.894;16.714;2022-12-07T02:03:09;1.60;99.90
18175;DHT22;9212;50.894;16.714;2022-12-07T02:05:40;1.60;99.90
18175;DHT22;9212;50.894;16.714;2022-12-07T02:08:08;1.60;99.90
18175;DHT22;9212;50.894;16.714;2022-12-07T02:13:08;0.80;99.90
18175;DHT22;9212;50.894;16.714;2022-12-07T02:15:45;1.50;99.90
18175;DHT22;9212;50.894;16.714;2022-12-07T02:18:22;1.50;99.90
18175;DHT22;9212;50.894;16.714;2022-12-07T02:20:57;1.50;99.90
18175;DHT22;9212;50.894;16.714;2022-12-07T02:23:40;1.40;99.90
18175;DHT22;9212;50.894;16.714;2022-12-07T02:29:19;1.50;99.90
18175;DHT22;9212;50.894;16.714;2022-12-07T02:31:55;1.40;99.90
18175;DHT22;9212;50.894;16.714;2022-12-07T02:34:30;1.50;99.90
18175;DHT22;9212;50.894;16.714;2022-12-07T02:37:04;1.50;99.90
18175;DHT22;9212;50.894;16.714;2022-12-07T02:39:41;0.70;99.90
18175;DHT22;9212;50.894;16.714;2022-12-07T02:42:14;1.40;99.90
18175;DHT22;9212;50.894;16.714;2022-12-07T02:44:44;1.50;99.90
18175;DHT22;9212;50.894;16.714;2022-12-07T02:47:15;1.50;99.90
18175;DHT22;9212;50.894;16.714;2022-12-07T02:49:43;1.50;99.90
18175;DHT22;9212;50.894;16.714;2022-12-07T02:52:10;0.80;99.90
18175;DHT22;9212;50.894;16.714;2022-12-07T02:54:37;1.50;99.90
18175;DHT22;9212;50.894;16.714;2022-12-07T02:57:14;1.50;99.90
18175;DHT22;9212;50.894;16.714;2022-12-07T02:59:52;1.50;99.90
18175;DHT22;9212;50.894;16.714;2022-12-07T03:02:28;1.50;99.90
18175;DHT22;9212;50.894;16.714;2022-12-07T03:05:08;1.60;99.90
18175;DHT22;9212;50.894;16.714;2022-12-07T03:07:45;1.50;99.90
18175;DHT22;9212;50.894;16.714;2022-12-07T03:10:22;1.50;99.90
18175;DHT22;9212;50.894;16.714;2022-12-07T03:13:01;1.60;99.90
18175;DHT22;9212;50.894;16.714;2022-12-07T03:15:34;1.60;99.90
18175;DHT22;9212;50.894;16.714;2022-12-07T03:18:04;1.70;99.90
18175;DHT22;9212;50.894;16.714;2022-12-07T03:20:33;1.50;99.90
18175;DHT22;9212;50.894;16.714;2022-12-07T03:23:04;1.60;99.90
18175;DHT22;9212;50.894;16.714;2022-12-07T03:25:34;1.50;99.90
18175;DHT22;9212;50.894;16.714;2022-12-07T03:28:05;1.50;99.90
18175;DHT22;9212;50.894;16.714;2022-12-07T03:30:37;0.90;99.90
18175;DHT22;9212;50.894;16.714;2022-12-07T03:33:08;1.50;99.90
18175;DHT22;9212;50.894;16.714;2022-12-07T03:35:41;1.40;99.90
18175;DHT22;9212;50.894;16.714;2022-12-07T03:38:15;1.50;99.90
18175;DHT22;9212;50.894;16.714;2022-12-07T03:40:47;1.40;99.90
18175;DHT22;9212;50.894;16.714;2022-12-07T03:43:17;1.40;99.90
18175;DHT22;9212;50.894;16.714;2022-12-07T03:45:53;1.40;99.90
18175;DHT22;9212;50.894;16.714;2022-12-07T03:48:28;1.40;99.90
18175;DHT22;9212;50.894;16.714;2022-12-07T03:51:07;1.80;99.90
18175;DHT22;9212;50.894;16.714;2022-12-07T03:53:39;1.50;99.90
18175;DHT22;9212;50.894;16.714;2022-12-07T03:56:08;1.50;99.90
18175;DHT22;9212;50.894;16.714;2022-12-07T03:58:36;2.60;99.90
18175;DHT22;9212;50.894;16.714;2022-12-07T04:01:05;1.70;99.90
18175;DHT22;9212;50.894;16.714;2022-12-07T04:03:32;1.30;99.90
18175;DHT22;9212;50.894;16.714;2022-12-07T04:05:59;2.10;99.90
18175;DHT22;9212;50.894;16.714;2022-12-07T04:08:26;1.50;99.90
18175;DHT22;9212;50.894;16.714;2022-12-07T04:10:53;1.50;99.90
18175;DHT22;9212;50.894;16.714;2022-12-07T04:13:20;1.40;99.90
18175;DHT22;9212;50.894;16.714;2022-12-07T04:18:15;1.50;99.90
18175;DHT22;9212;50.894;16.714;2022-12-07T04:23:09;1.60;99.90
18175;DHT22;9212;50.894;16.714;2022-12-07T04:25:36;1.50;99.90
18175;DHT22;9212;50.894;16.714;2022-12-07T04:28:04;1.60;99.90
18175;DHT22;9212;50.894;16.714;2022-12-07T04:30:31;1.50;99.90
18175;DHT22;9212;50.894;16.714;2022-12-07T04:32:57;2.50;99.90
18175;DHT22;9212;50.894;16.714;2022-12-07T04:37:53;1.50;99.90
18175;DHT22;9212;50.894;16.714;2022-12-07T04:40:20;1.60;99.90
18175;DHT22;9212;50.894;16.714;2022-12-07T04:42:47;1.60;99.90
18175;DHT22;9212;50.894;16.714;2022-12-07T04:45:14;1.50;99.90
18175;DHT22;9212;50.894;16.714;2022-12-07T04:47:40;1.60;99.90
18175;DHT22;9212;50.894;16.714;2022-12-07T04:50:09;1.60;99.90
18175;DHT22;9212;50.894;16.714;2022-12-07T04:52:38;1.60;99.90
18175;DHT22;9212;50.894;16.714;2022-12-07T04:55:05;1.50;99.90
18175;DHT22;9212;50.894;16.714;2022-12-07T04:57:32;1.80;99.90
18175;DHT22;9212;50.894;16.714;2022-12-07T04:59:59;1.60;99.90
18175;DHT22;9212;50.894;16.714;2022-12-07T05:02:26;1.60;99.90
18175;DHT22;9212;50.894;16.714;2022-12-07T05:04:53;1.70;99.90
18175;DHT22;9212;50.894;16.714;2022-12-07T05:12:16;1.80;99.90
18175;DHT22;9212;50.894;16.714;2022-12-07T05:14:42;1.90;99.90
18175;DHT22;9212;50.894;16.714;2022-12-07T05:17:09;1.60;99.90
18175;DHT22;9212;50.894;16.714;2022-12-07T05:19:37;1.80;99.90
18175;DHT22;9212;50.894;16.714;2022-12-07T05:22:04;1.80;99.90
18175;DHT22;9212;50.894;16.714;2022-12-07T05:24:31;1.90;99.90
18175;DHT22;9212;50.894;16.714;2022-12-07T05:26:59;1.90;99.90
18175;DHT22;9212;50.894;16.714;2022-12-07T05:29:26;1.90;99.90
18175;DHT22;9212;50.894;16.714;2022-12-07T05:31:53;1.10;99.90
18175;DHT22;9212;50.894;16.714;2022-12-07T05:34:20;1.90;99.90
18175;DHT22;9212;50.894;16.714;2022-12-07T05:36:47;1.80;99.90
18175;DHT22;9212;50.894;16.714;2022-12-07T05:39:14;1.80;99.90
18175;DHT22;9212;50.894;16.714;2022-12-07T05:41:41;2.30;99.90
18175;DHT22;9212;50.894;16.714;2022-12-07T05:44:27;1.80;99.90
18175;DHT22;9212;50.894;16.714;2022-12-07T05:46:54;1.80;99.90
18175;DHT22;9212;50.894;16.714;2022-12-07T05:49:21;2.10;99.90
18175;DHT22;9212;50.894;16.714;2022-12-07T05:51:48;1.70;99.90
18175;DHT22;9212;50.894;16.714;2022-12-07T05:54:15;1.80;99.90
18175;DHT22;9212;50.894;16.714;2022-12-07T05:59:09;1.90;99.90
18175;DHT22;9212;50.894;16.714;2022-12-07T06:01:56;1.80;99.90
18175;DHT22;9212;50.894;16.714;2022-12-07T06:04:25;1.90;99.90
18175;DHT22;9212;50.894;16.714;2022-12-07T06:06:52;1.90;99.90
18175;DHT22;9212;50.894;16.714;2022-12-07T06:09:20;1.80;99.90
18175;DHT22;9212;50.894;16.714;2022-12-07T06:11:48;1.80;99.90
18175;DHT22;9212;50.894;16.714;2022-12-07T06:14:32;1.90;99.90
18175;DHT22;9212;50.894;16.714;2022-12-07T06:17:00;3.60;99.90
18175;DHT22;9212;50.894;16.714;2022-12-07T06:19:27;1.80;99.90
18175;DHT22;9212;50.894;16.714;2022-12-07T06:21:55;1.70;99.90
18175;DHT22;9212;50.894;16.714;2022-12-07T06:24:22;1.80;99.90
18175;DHT22;9212;50.894;16.714;2022-12-07T06:26:49;1.10;99.90
18175;DHT22;9212;50.894;16.714;2022-12-07T06:29:17;1.70;99.90
18175;DHT22;9212;50.894;16.714;2022-12-07T06:31:44;1.80;99.90
18175;DHT22;9212;50.894;16.714;2022-12-07T06:34:15;1.70;99.90
18175;DHT22;9212;50.894;16.714;2022-12-07T06:36:42;1.70;99.90
18175;DHT22;9212;50.894;16.714;2022-12-07T06:39:09;1.60;99.90
18175;DHT22;9212;50.894;16.714;2022-12-07T06:41:37;1.70;99.90
18175;DHT22;9212;50.894;16.714;2022-12-07T06:44:06;1.60;99.90
18175;DHT22;9212;50.894;16.714;2022-12-07T06:46:33;1.60;99.90
18175;DHT22;9212;50.894;16.714;2022-12-07T06:49:01;2.30;99.90
18175;DHT22;9212;50.894;16.714;2022-12-07T06:51:29;1.50;99.90
18175;DHT22;9212;50.894;16.714;2022-12-07T06:53:56;1.40;99.90
18175;DHT22;9212;50.894;16.714;2022-12-07T06:56:23;2.40;99.90
18175;DHT22;9212;50.894;16.714;2022-12-07T06:58:50;1.50;99.90
18175;DHT22;9212;50.894;16.714;2022-12-07T07:01:18;2.20;99.90
18175;DHT22;9212;50.894;16.714;2022-12-07T07:03:45;1.60;99.90
18175;DHT22;9212;50.894;16.714;2022-12-07T07:06:13;1.60;99.90
18175;DHT22;9212;50.894;16.714;2022-12-07T07:11:09;1.60;99.90
18175;DHT22;9212;50.894;16.714;2022-12-07T07:13:36;1.10;99.90
18175;DHT22;9212;50.894;16.714;2022-12-07T07:16:04;1.70;99.90
18175;DHT22;9212;50.894;16.714;2022-12-07T07:18:31;1.10;99.90
18175;DHT22;9212;50.894;16.714;2022-12-07T07:20:58;2.50;99.90
18175;DHT22;9212;50.894;16.714;2022-12-07T07:23:25;2.30;99.90
18175;DHT22;9212;50.894;16.714;2022-12-07T07:25:53;1.20;99.90
18175;DHT22;9212;50.894;16.714;2022-12-07T07:28:20;1.50;99.90
18175;DHT22;9212;50.894;16.714;2022-12-07T07:33:14;1.50;99.90
18175;DHT22;9212;50.894;16.714;2022-12-07T07:35:41;2.00;99.90
18175;DHT22;9212;50.894;16.714;2022-12-07T07:38:08;2.70;99.90
18175;DHT22;9212;50.894;16.714;2022-12-07T07:40:35;2.00;99.90
18175;DHT22;9212;50.894;16.714;2022-12-07T07:43:04;2.00;99.90
18175;DHT22;9212;50.894;16.714;2022-12-07T07:45:31;2.30;99.90
18175;DHT22;9212;50.894;16.714;2022-12-07T07:47:58;1.10;99.90
18175;DHT22;9212;50.894;16.714;2022-12-07T07:52:52;1.70;99.90
18175;DHT22;9212;50.894;16.714;2022-12-07T07:55:19;1.80;99.90
18175;DHT22;9212;50.894;16.714;2022-12-07T07:57:46;1.90;99.90
18175;DHT22;9212;50.894;16.714;2022-12-07T08:00:16;2.00;99.90
18175;DHT22;9212;50.894;16.714;2022-12-07T08:05:12;1.70;99.90
18175;DHT22;9212;50.894;16.714;2022-12-07T08:07:39;1.80;99.90
18175;DHT22;9212;50.894;16.714;2022-12-07T08:10:08;2.60;99.90
18175;DHT22;9212;50.894;16.714;2022-12-07T08:15:26;1.70;99.90
18175;DHT22;9212;50.894;16.714;2022-12-07T08:20:22;1.80;99.90
18175;DHT22;9212;50.894;16.714;2022-12-07T08:27:51;1.70;99.90
18175;DHT22;9212;50.894;16.714;2022-12-07T08:40:13;0.50;99.90
18175;DHT22;9212;50.894;16.714;2022-12-07T08:42:41;1.40;99.90
18175;DHT22;9212;50.894;16.714;2022-12-07T08:45:14;1.20;99.90
18175;DHT22;9212;50.894;16.714;2022-12-07T08:47:46;1.50;99.90
18175;DHT22;9212;50.894;16.714;2022-12-07T08:50:17;1.60;99.90
18175;DHT22;9212;50.894;16.714;2022-12-07T08:55:12;2.50;99.90
18175;DHT22;9212;50.894;16.714;2022-12-07T08:57:39;1.90;99.90
18175;DHT22;9212;50.894;16.714;2022-12-07T09:05:04;2.40;99.90
18175;DHT22;9212;50.894;16.714;2022-12-07T09:07:34;2.80;99.90
18175;DHT22;9212;50.894;16.714;2022-12-07T09:10:02;3.00;99.90
18175;DHT22;9212;50.894;16.714;2022-12-07T09:14:57;3.40;99.90
18175;DHT22;9212;50.894;16.714;2022-12-07T09:17:26;3.50;99.90
18175;DHT22;9212;50.894;16.714;2022-12-07T09:19:53;3.70;99.90
18175;DHT22;9212;50.894;16.714;2022-12-07T09:22:20;3.90;99.90
18175;DHT22;9212;50.894;16.714;2022-12-07T09:27:15;4.00;99.90
18175;DHT22;9212;50.894;16.714;2022-12-07T09:29:43;4.20;99.90
18175;DHT22;9212;50.894;16.714;2022-12-07T09:32:10;4.30;99.90
18175;DHT22;9212;50.894;16.714;2022-12-07T09:34:37;4.60;99.90
18175;DHT22;9212;50.894;16.714;2022-12-07T09:39:33;4.40;99.90
18175;DHT22;9212;50.894;16.714;2022-12-07T09:42:04;4.50;99.90
18175;DHT22;9212;50.894;16.714;2022-12-07T09:44:33;4.40;99.90
18175;DHT22;9212;50.894;16.714;2022-12-07T09:49:30;4.30;99.90
18175;DHT22;9212;50.894;16.714;2022-12-07T09:52:03;5.20;99.90
18175;DHT22;9212;50.894;16.714;2022-12-07T09:54:45;5.00;99.90
18175;DHT22;9212;50.894;16.714;2022-12-07T09:57:14;4.40;99.90
18175;DHT22;9212;50.894;16.714;2022-12-07T10:04:51;4.30;99.90
18175;DHT22;9212;50.894;16.714;2022-12-07T10:14:56;4.30;99.90
18175;DHT22;9212;50.894;16.714;2022-12-07T10:17:35;4.20;99.90
18175;DHT22;9212;50.894;16.714;2022-12-07T10:20:23;4.20;99.90
18175;DHT22;9212;50.894;16.714;2022-12-07T10:23:01;4.60;99.90
18175;DHT22;9212;50.894;16.714;2022-12-07T10:25:31;4.10;99.90
18175;DHT22;9212;50.894;16.714;2022-12-07T10:28:08;4.10;99.90
18175;DHT22;9212;50.894;16.714;2022-12-07T10:30:47;4.20;99.90
18175;DHT22;9212;50.894;16.714;2022-12-07T10:33:28;4.10;99.90
18175;DHT22;9212;50.894;16.714;2022-12-07T10:38:27;4.20;99.90
18175;DHT22;9212;50.894;16.714;2022-12-07T10:43:34;3.90;99.90
18175;DHT22;9212;50.894;16.714;2022-12-07T10:46:18;3.80;99.90
18175;DHT22;9212;50.894;16.714;2022-12-07T10:48:52;3.80;99.90
18175;DHT22;9212;50.894;16.714;2022-12-07T10:51:29;3.80;99.90
18175;DHT22;9212;50.894;16.714;2022-12-07T10:54:04;4.80;99.90
18175;DHT22;9212;50.894;16.714;2022-12-07T10:56:55;3.70;99.90
18175;DHT22;9212;50.894;16.714;2022-12-07T10:59:58;3.60;99.90
18175;DHT22;9212;50.894;16.714;2022-12-07T11:02:39;3.80;99.90
18175;DHT22;9212;50.894;16.714;2022-12-07T11:05:17;3.80;99.90
18175;DHT22;9212;50.894;16.714;2022-12-07T11:07:54;3.70;99.90
18175;DHT22;9212;50.894;16.714;2022-12-07T11:10:26;4.60;99.90
18175;DHT22;9212;50.894;16.714;2022-12-07T11:13:18;3.80;99.90
18175;DHT22;9212;50.894;16.714;2022-12-07T11:16:14;3.70;99.90
18175;DHT22;9212;50.894;16.714;2022-12-07T11:18:51;3.90;99.90
18175;DHT22;9212;50.894;16.714;2022-12-07T11:21:26;4.00;99.90
18175;DHT22;9212;50.894;16.714;2022-12-07T11:23:59;4.00;99.90
18175;DHT22;9212;50.894;16.714;2022-12-07T11:26:42;4.10;99.90
18175;DHT22;9212;50.894;16.714;2022-12-07T11:29:24;3.80;99.90
18175;DHT22;9212;50.894;16.714;2022-12-07T11:32:02;3.80;99.90
18175;DHT22;9212;50.894;16.714;2022-12-07T11:34:37;3.90;99.90
18175;DHT22;9212;50.894;16.714;2022-12-07T11:37:09;4.00;99.90
18175;DHT22;9212;50.894;16.714;2022-12-07T11:39:43;4.00;99.90
18175;DHT22;9212;50.894;16.714;2022-12-07T11:42:15;4.10;99.90
18175;DHT22;9212;50.894;16.714;2022-12-07T11:44:50;4.10;99.90
18175;DHT22;9212;50.894;16.714;2022-12-07T11:47:27;4.20;99.90
18175;DHT22;9212;50.894;16.714;2022-12-07T11:49:58;4.20;99.90
18175;DHT22;9212;50.894;16.714;2022-12-07T11:52:35;4.20;99.90
18175;DHT22;9212;50.894;16.714;2022-12-07T11:55:12;4.70;99.90
18175;DHT22;9212;50.894;16.714;2022-12-07T11:57:45;4.10;99.90
18175;DHT22;9212;50.894;16.714;2022-12-07T12:00:17;3.90;99.90
18175;DHT22;9212;50.894;16.714;2022-12-07T12:02:51;3.90;99.90
18175;DHT22;9212;50.894;16.714;2022-12-07T12:05:21;3.90;99.90
18175;DHT22;9212;50.894;16.714;2022-12-07T12:07:52;4.10;99.90
18175;DHT22;9212;50.894;16.714;2022-12-07T12:10:24;4.00;99.90
18175;DHT22;9212;50.894;16.714;2022-12-07T12:13:22;3.90;99.90
18175;DHT22;9212;50.894;16.714;2022-12-07T12:16:03;3.90;99.90
18175;DHT22;9212;50.894;16.714;2022-12-07T12:18:45;3.80;99.90
18175;DHT22;9212;50.894;16.714;2022-12-07T12:21:20;4.30;99.90
18175;DHT22;9212;50.894;16.714;2022-12-07T12:23:51;3.90;99.90
18175;DHT22;9212;50.894;16.714;2022-12-07T12:26:24;3.80;99.90
18175;DHT22;9212;50.894;16.714;2022-12-07T12:28:54;3.70;99.90
18175;DHT22;9212;50.894;16.714;2022-12-07T12:31:38;3.80;99.90
18175;DHT22;9212;50.894;16.714;2022-12-07T12:34:32;3.60;99.90
18175;DHT22;9212;50.894;16.714;2022-12-07T12:37:00;3.60;99.90
18175;DHT22;9212;50.894;16.714;2022-12-07T12:39:26;3.80;99.90
18175;DHT22;9212;50.894;16.714;2022-12-07T12:42:00;3.60;99.90
18175;DHT22;9212;50.894;16.714;2022-12-07T12:47:43;3.60;99.90
18175;DHT22;9212;50.894;16.714;2022-12-07T12:50:23;3.70;99.90
18175;DHT22;9212;50.894;16.714;2022-12-07T12:56:06;3.70;99.90
18175;DHT22;9212;50.894;16.714;2022-12-07T12:58:41;3.70;99.90
18175;DHT22;9212;50.894;16.714;2022-12-07T13:01:43;3.70;99.90
18175;DHT22;9212;50.894;16.714;2022-12-07T13:04:48;3.80;99.90
18175;DHT22;9212;50.894;16.714;2022-12-07T13:10:37;3.60;99.90
18175;DHT22;9212;50.894;16.714;2022-12-07T13:13:28;3.80;99.90
18175;DHT22;9212;50.894;16.714;2022-12-07T13:16:38;5.00;99.90
18175;DHT22;9212;50.894;16.714;2022-12-07T13:22:35;3.70;99.90
18175;DHT22;9212;50.894;16.714;2022-12-07T13:25:08;3.60;99.90
18175;DHT22;9212;50.894;16.714;2022-12-07T13:27:40;3.50;99.90
18175;DHT22;9212;50.894;16.714;2022-12-07T13:30:14;4.70;99.90
18175;DHT22;9212;50.894;16.714;2022-12-07T13:32:42;3.70;99.90
18175;DHT22;9212;50.894;16.714;2022-12-07T13:35:32;3.90;99.90
18175;DHT22;9212;50.894;16.714;2022-12-07T13:38:02;3.60;99.90
18175;DHT22;9212;50.894;16.714;2022-12-07T13:40:30;3.60;99.90
18175;DHT22;9212;50.894;16.714;2022-12-07T13:43:00;3.60;99.90
18175;DHT22;9212;50.894;16.714;2022-12-07T13:45:29;3.60;99.90
18175;DHT22;9212;50.894;16.714;2022-12-07T13:48:20;3.60;99.90
18175;DHT22;9212;50.894;16.714;2022-12-07T13:50:53;3.40;99.90
18175;DHT22;9212;50.894;16.714;2022-12-07T13:55:48;3.50;99.90
18175;DHT22;9212;50.894;16.714;2022-12-07T13:58:17;3.60;99.90
18175;DHT22;9212;50.894;16.714;2022-12-07T14:00:44;3.50;99.90
18175;DHT22;9212;50.894;16.714;2022-12-07T14:03:31;3.50;99.90
18175;DHT22;9212;50.894;16.714;2022-12-07T14:06:11;3.50;99.90
18175;DHT22;9212;50.894;16.714;2022-12-07T14:08:39;3.60;99.90
18175;DHT22;9212;50.894;16.714;2022-12-07T14:11:09;3.50;99.90
18175;DHT22;9212;50.894;16.714;2022-12-07T14:13:44;3.50;99.90
18175;DHT22;9212;50.894;16.714;2022-12-07T14:16:22;3.50;99.90
18175;DHT22;9212;50.894;16.714;2022-12-07T14:18:50;3.40;99.90
18175;DHT22;9212;50.894;16.714;2022-12-07T14:21:18;3.50;99.90
18175;DHT22;9212;50.894;16.714;2022-12-07T14:24:07;3.40;99.90
18175;DHT22;9212;50.894;16.714;2022-12-07T14:29:22;3.50;99.90
18175;DHT22;9212;50.894;16.714;2022-12-07T14:31:56;3.50;99.90
18175;DHT22;9212;50.894;16.714;2022-12-07T14:34:23;3.40;99.90
18175;DHT22;9212;50.894;16.714;2022-12-07T14:36:51;3.50;99.90
18175;DHT22;9212;50.894;16.714;2022-12-07T14:39:18;3.50;99.90
18175;DHT22;9212;50.894;16.714;2022-12-07T14:41:45;2.80;99.90
18175;DHT22;9212;50.894;16.714;2022-12-07T14:44:19;4.00;99.90
18175;DHT22;9212;50.894;16.714;2022-12-07T14:46:49;3.50;99.90
18175;DHT22;9212;50.894;16.714;2022-12-07T14:49:17;3.30;99.90
18175;DHT22;9212;50.894;16.714;2022-12-07T14:51:46;3.40;99.90
18175;DHT22;9212;50.894;16.714;2022-12-07T14:54:16;3.20;99.90
18175;DHT22;9212;50.894;16.714;2022-12-07T14:56:44;3.00;99.90
18175;DHT22;9212;50.894;16.714;2022-12-07T14:59:11;2.90;99.90
18175;DHT22;9212;50.894;16.714;2022-12-07T15:04:07;2.80;99.90
18175;DHT22;9212;50.894;16.714;2022-12-07T15:09:02;2.90;99.90
18175;DHT22;9212;50.894;16.714;2022-12-07T15:11:29;2.10;99.90
18175;DHT22;9212;50.894;16.714;2022-12-07T15:16:40;2.70;99.90
18175;DHT22;9212;50.894;16.714;2022-12-07T15:19:12;3.00;99.90
18175;DHT22;9212;50.894;16.714;2022-12-07T15:21:41;2.70;99.90
18175;DHT22;9212;50.894;16.714;2022-12-07T15:26:36;2.80;99.90
18175;DHT22;9212;50.894;16.714;2022-12-07T15:33:59;2.30;99.90
18175;DHT22;9212;50.894;16.714;2022-12-07T15:36:28;2.50;99.90
18175;DHT22;9212;50.894;16.714;2022-12-07T15:38:56;3.50;99.90
18175;DHT22;9212;50.894;16.714;2022-12-07T15:46:37;2.40;99.90
18175;DHT22;9212;50.894;16.714;2022-12-07T15:49:04;2.20;99.90
18175;DHT22;9212;50.894;16.714;2022-12-07T15:54:01;2.20;99.90
18175;DHT22;9212;50.894;16.714;2022-12-07T16:01:23;1.40;99.90
18175;DHT22;9212;50.894;16.714;2022-12-07T16:03:50;2.10;99.90
18175;DHT22;9212;50.894;16.714;2022-12-07T16:06:18;3.00;99.90
18175;DHT22;9212;50.894;16.714;2022-12-07T16:08:47;2.00;99.90
18175;DHT22;9212;50.894;16.714;2022-12-07T16:11:14;1.70;99.90
18175;DHT22;9212;50.894;16.714;2022-12-07T16:13:41;1.20;99.90
18175;DHT22;9212;50.894;16.714;2022-12-07T16:16:10;1.80;99.90
18175;DHT22;9212;50.894;16.714;2022-12-07T16:21:05;2.90;99.90
18175;DHT22;9212;50.894;16.714;2022-12-07T16:23:32;1.60;99.90
18175;DHT22;9212;50.894;16.714;2022-12-07T16:26:10;1.70;99.90
18175;DHT22;9212;50.894;16.714;2022-12-07T16:31:06;1.70;99.90
18175;DHT22;9212;50.894;16.714;2022-12-07T16:33:35;1.50;99.90
18175;DHT22;9212;50.894;16.714;2022-12-07T16:38:30;1.00;99.90
18175;DHT22;9212;50.894;16.714;2022-12-07T16:43:25;1.60;99.90
18175;DHT22;9212;50.894;16.714;2022-12-07T16:45:53;1.30;99.90
18175;DHT22;9212;50.894;16.714;2022-12-07T16:48:20;1.10;99.90
18175;DHT22;9212;50.894;16.714;2022-12-07T16:50:47;1.20;99.90
18175;DHT22;9212;50.894;16.714;2022-12-07T16:53:15;1.10;99.90
18175;DHT22;9212;50.894;16.714;2022-12-07T16:55:44;1.30;99.90
18175;DHT22;9212;50.894;16.714;2022-12-07T16:58:12;1.20;99.90
18175;DHT22;9212;50.894;16.714;2022-12-07T17:00:42;1.30;99.90
18175;DHT22;9212;50.894;16.714;2022-12-07T17:03:09;1.20;99.90
18175;DHT22;9212;50.894;16.714;2022-12-07T17:05:38;1.30;99.90
18175;DHT22;9212;50.894;16.714;2022-12-07T17:08:05;1.30;99.90
18175;DHT22;9212;50.894;16.714;2022-12-07T17:10:34;1.20;99.90
18175;DHT22;9212;50.894;16.714;2022-12-07T17:13:02;1.40;99.90
18175;DHT22;9212;50.894;16.714;2022-12-07T17:15:57;1.10;99.90
18175;DHT22;9212;50.894;16.714;2022-12-07T17:18:23;0.80;99.90
18175;DHT22;9212;50.894;16.714;2022-12-07T17:30:39;1.20;99.90
18175;DHT22;9212;50.894;16.714;2022-12-07T17:33:07;1.00;99.90
18175;DHT22;9212;50.894;16.714;2022-12-07T17:38:02;1.00;99.90
18175;DHT22;9212;50.894;16.714;2022-12-07T17:40:29;1.00;99.90
18175;DHT22;9212;50.894;16.714;2022-12-07T17:45:23;1.00;99.90
18175;DHT22;9212;50.894;16.714;2022-12-07T17:50:18;0.70;99.90
18175;DHT22;9212;50.894;16.714;2022-12-07T17:53:08;0.80;99.90
18175;DHT22;9212;50.894;16.714;2022-12-07T17:58:02;0.90;99.90
18175;DHT22;9212;50.894;16.714;2022-12-07T18:00:29;1.20;99.90
18175;DHT22;9212;50.894;16.714;2022-12-07T18:03:03;1.10;99.90
18175;DHT22;9212;50.894;16.714;2022-12-07T18:07:59;1.20;99.90
18175;DHT22;9212;50.894;16.714;2022-12-07T18:10:32;1.40;99.90
18175;DHT22;9212;50.894;16.714;2022-12-07T18:20:41;1.50;99.90
18175;DHT22;9212;50.894;16.714;2022-12-07T18:23:11;1.50;99.90
18175;DHT22;9212;50.894;16.714;2022-12-07T18:25:39;1.50;99.90
18175;DHT22;9212;50.894;16.714;2022-12-07T18:28:10;1.50;99.90
18175;DHT22;9212;50.894;16.714;2022-12-07T18:30:39;1.50;99.90
18175;DHT22;9212;50.894;16.714;2022-12-07T18:33:06;1.40;99.90
18175;DHT22;9212;50.894;16.714;2022-12-07T18:35:35;1.40;99.90
18175;DHT22;9212;50.894;16.714;2022-12-07T18:38:06;1.50;99.90
18175;DHT22;9212;50.894;16.714;2022-12-07T18:40:36;1.30;99.90
18175;DHT22;9212;50.894;16.714;2022-12-07T18:43:07;1.60;99.90
18175;DHT22;9212;50.894;16.714;2022-12-07T18:45:34;1.50;99.90
18175;DHT22;9212;50.894;16.714;2022-12-07T18:48:02;1.70;99.90
18175;DHT22;9212;50.894;16.714;2022-12-07T18:50:29;0.80;99.90
18175;DHT22;9212;50.894;16.714;2022-12-07T18:52:56;1.50;99.90
18175;DHT22;9212;50.894;16.714;2022-12-07T18:55:27;1.50;99.90
18175;DHT22;9212;50.894;16.714;2022-12-07T18:57:55;1.50;99.90
18175;DHT22;9212;50.894;16.714;2022-12-07T19:05:21;1.50;99.90
18175;DHT22;9212;50.894;16.714;2022-12-07T19:07:49;1.50;99.90
18175;DHT22;9212;50.894;16.714;2022-12-07T19:10:17;1.40;99.90
18175;DHT22;9212;50.894;16.714;2022-12-07T19:12:46;1.40;99.90
18175;DHT22;9212;50.894;16.714;2022-12-07T19:17:41;1.30;99.90
18175;DHT22;9212;50.894;16.714;2022-12-07T19:20:12;1.20;99.90
18175;DHT22;9212;50.894;16.714;2022-12-07T19:22:40;1.20;99.90
18175;DHT22;9212;50.894;16.714;2022-12-07T19:25:13;1.00;99.90
18175;DHT22;9212;50.894;16.714;2022-12-07T19:27:40;1.10;99.90